sensor_id;sensor_type;location;lat;lon;timestamp;P1;durP1;ratioP1;P2;durP2;ratioP2
62332;SDS011;48624;49.812;8.562;2022-11-14T00:00:26;71.70;;;28.90;;
62332;SDS011;48624;49.812;8.562;2022-11-14T00:02:53;52.77;;;26.03;;
62332;SDS011;48624;49.812;8.562;2022-11-14T00:05:19;64.73;;;28.93;;
62332;SDS011;48624;49.812;8.562;2022-11-14T00:07:44;58.10;;;29.03;;
62332;SDS011;48624;49.812;8.562;2022-11-14T00:10:11;58.73;;;28.17;;
62332;SDS011;48624;49.812;8.562;2022-11-14T00:12:40;58.23;;;27.83;;
62332;SDS011;48624;49.812;8.562;2022-11-14T00:15:05;55.77;;;27.03;;
62332;SDS011;48624;49.812;8.562;2022-11-14T00:17:32;59.23;;;25.80;;
62332;SDS011;48624;49.812;8.562;2022-11-14T00:19:57;54.03;;;26.23;;
62332;SDS011;48624;49.812;8.562;2022-11-14T00:22:22;52.20;;;24.73;;
62332;SDS011;48624;49.812;8.562;2022-11-14T00:24:48;57.77;;;24.80;;
62332;SDS011;48624;49.812;8.562;2022-11-14T00:27:13;61.33;;;26.57;;
62332;SDS011;48624;49.812;8.562;2022-11-14T00:29:39;66.10;;;27.23;;
62332;SDS011;48624;49.812;8.562;2022-11-14T00:32:04;53.08;;;24.00;;
62332;SDS011;48624;49.812;8.562;2022-11-14T00:34:30;68.40;;;29.83;;
62332;SDS011;48624;49.812;8.562;2022-11-14T00:36:55;59.13;;;27.83;;
62332;SDS011;48624;49.812;8.562;2022-11-14T00:39:20;49.60;;;27.47;;
62332;SDS011;48624;49.812;8.562;2022-11-14T00:41:46;48.87;;;25.87;;
62332;SDS011;48624;49.812;8.562;2022-11-14T00:44:11;50.20;;;25.98;;
62332;SDS011;48624;49.812;8.562;2022-11-14T00:46:36;61.90;;;28.23;;
62332;SDS011;48624;49.812;8.562;2022-11-14T00:49:02;52.53;;;26.20;;
62332;SDS011;48624;49.812;8.562;2022-11-14T00:51:28;52.83;;;27.70;;
62332;SDS011;48624;49.812;8.562;2022-11-14T00:53:53;51.55;;;23.85;;
62332;SDS011;48624;49.812;8.562;2022-11-14T00:56:19;50.27;;;26.20;;
62332;SDS011;48624;49.812;8.562;2022-11-14T00:58:45;49.27;;;26.73;;
62332;SDS011;48624;49.812;8.562;2022-11-14T01:01:10;55.87;;;27.77;;
62332;SDS011;48624;49.812;8.562;2022-11-14T01:03:36;58.25;;;28.70;;
62332;SDS011;48624;49.812;8.562;2022-11-14T01:06:05;50.20;;;22.83;;
62332;SDS011;48624;49.812;8.562;2022-11-14T01:08:32;51.67;;;23.13;;
62332;SDS011;48624;49.812;8.562;2022-11-14T01:10:59;63.50;;;27.02;;
62332;SDS011;48624;49.812;8.562;2022-11-14T01:13:25;53.43;;;27.13;;
62332;SDS011;48624;49.812;8.562;2022-11-14T01:15:51;50.92;;;26.85;;
62332;SDS011;48624;49.812;8.562;2022-11-14T01:18:18;46.83;;;26.13;;
62332;SDS011;48624;49.812;8.562;2022-11-14T01:20:45;51.35;;;25.73;;
62332;SDS011;48624;49.812;8.562;2022-11-14T01:23:12;53.97;;;27.65;;
62332;SDS011;48624;49.812;8.562;2022-11-14T01:25:39;56.70;;;27.60;;
62332;SDS011;48624;49.812;8.562;2022-11-14T01:28:06;65.72;;;26.48;;
62332;SDS011;48624;49.812;8.562;2022-11-14T01:30:33;67.93;;;28.60;;
62332;SDS011;48624;49.812;8.562;2022-11-14T01:32:59;81.88;;;29.90;;
62332;SDS011;48624;49.812;8.562;2022-11-14T01:35:25;55.92;;;26.38;;
62332;SDS011;48624;49.812;8.562;2022-11-14T01:37:50;67.10;;;27.10;;
62332;SDS011;48624;49.812;8.562;2022-11-14T01:40:16;52.95;;;27.00;;
62332;SDS011;48624;49.812;8.562;2022-11-14T01:42:41;54.97;;;25.80;;
62332;SDS011;48624;49.812;8.562;2022-11-14T01:48:19;60.13;;;24.25;;
62332;SDS011;48624;49.812;8.562;2022-11-14T01:50:49;91.03;;;29.00;;
62332;SDS011;48624;49.812;8.562;2022-11-14T01:53:19;186.15;;;38.08;;
62332;SDS011;48624;49.812;8.562;2022-11-14T01:55:45;94.47;;;26.97;;
62332;SDS011;48624;49.812;8.562;2022-11-14T01:58:11;67.60;;;27.50;;
62332;SDS011;48624;49.812;8.562;2022-11-14T02:00:37;64.77;;;25.27;;
62332;SDS011;48624;49.812;8.562;2022-11-14T02:03:03;65.57;;;24.80;;
62332;SDS011;48624;49.812;8.562;2022-11-14T02:05:28;71.32;;;25.67;;
62332;SDS011;48624;49.812;8.562;2022-11-14T02:07:53;92.47;;;26.52;;
62332;SDS011;48624;49.812;8.562;2022-11-14T02:10:19;84.90;;;27.70;;
62332;SDS011;48624;49.812;8.562;2022-11-14T02:12:45;84.25;;;27.92;;
62332;SDS011;48624;49.812;8.562;2022-11-14T02:15:11;185.88;;;35.63;;
62332;SDS011;48624;49.812;8.562;2022-11-14T02:17:39;74.05;;;24.17;;
62332;SDS011;48624;49.812;8.562;2022-11-14T02:22:30;102.47;;;27.77;;
62332;SDS011;48624;49.812;8.562;2022-11-14T02:24:55;64.90;;;22.10;;
62332;SDS011;48624;49.812;8.562;2022-11-14T02:27:20;86.70;;;26.67;;
62332;SDS011;48624;49.812;8.562;2022-11-14T02:29:46;67.75;;;24.63;;
62332;SDS011;48624;49.812;8.562;2022-11-14T02:32:11;63.67;;;25.63;;
62332;SDS011;48624;49.812;8.562;2022-11-14T02:34:37;63.50;;;24.58;;
62332;SDS011;48624;49.812;8.562;2022-11-14T02:37:02;50.72;;;23.52;;
62332;SDS011;48624;49.812;8.562;2022-11-14T02:39:28;42.92;;;22.75;;
62332;SDS011;48624;49.812;8.562;2022-11-14T02:41:53;65.88;;;25.25;;
62332;SDS011;48624;49.812;8.562;2022-11-14T02:44:18;66.88;;;26.40;;
62332;SDS011;48624;49.812;8.562;2022-11-14T02:46:45;54.15;;;23.75;;
62332;SDS011;48624;49.812;8.562;2022-11-14T02:49:10;89.93;;;27.63;;
62332;SDS011;48624;49.812;8.562;2022-11-14T02:51:36;50.08;;;19.80;;
62332;SDS011;48624;49.812;8.562;2022-11-14T02:54:01;57.20;;;23.97;;
62332;SDS011;48624;49.812;8.562;2022-11-14T02:56:26;63.22;;;23.85;;
62332;SDS011;48624;49.812;8.562;2022-11-14T02:58:51;50.45;;;23.45;;
62332;SDS011;48624;49.812;8.562;2022-11-14T03:01:17;56.97;;;24.27;;
62332;SDS011;48624;49.812;8.562;2022-11-14T03:03:42;48.38;;;23.67;;
62332;SDS011;48624;49.812;8.562;2022-11-14T03:06:07;52.53;;;22.88;;
62332;SDS011;48624;49.812;8.562;2022-11-14T03:08:33;50.53;;;22.00;;
62332;SDS011;48624;49.812;8.562;2022-11-14T03:11:05;42.87;;;21.23;;
62332;SDS011;48624;49.812;8.562;2022-11-14T03:13:32;43.43;;;20.93;;
62332;SDS011;48624;49.812;8.562;2022-11-14T03:16:03;47.95;;;23.05;;
62332;SDS011;48624;49.812;8.562;2022-11-14T03:18:32;54.55;;;25.90;;
62332;SDS011;48624;49.812;8.562;2022-11-14T03:21:03;46.22;;;23.67;;
62332;SDS011;48624;49.812;8.562;2022-11-14T03:23:36;42.53;;;22.30;;
62332;SDS011;48624;49.812;8.562;2022-11-14T03:26:03;53.80;;;24.87;;
62332;SDS011;48624;49.812;8.562;2022-11-14T03:28:31;54.58;;;24.92;;
62332;SDS011;48624;49.812;8.562;2022-11-14T03:30:57;46.13;;;24.02;;
62332;SDS011;48624;49.812;8.562;2022-11-14T03:33:22;39.92;;;23.00;;
62332;SDS011;48624;49.812;8.562;2022-11-14T03:35:48;42.10;;;22.63;;
62332;SDS011;48624;49.812;8.562;2022-11-14T03:38:15;31.90;;;19.30;;
62332;SDS011;48624;49.812;8.562;2022-11-14T03:40:40;38.33;;;20.23;;
62332;SDS011;48624;49.812;8.562;2022-11-14T03:43:06;39.50;;;22.33;;
62332;SDS011;48624;49.812;8.562;2022-11-14T03:45:31;41.47;;;22.70;;
62332;SDS011;48624;49.812;8.562;2022-11-14T03:47:57;44.08;;;22.05;;
62332;SDS011;48624;49.812;8.562;2022-11-14T03:50:22;39.70;;;21.43;;
62332;SDS011;48624;49.812;8.562;2022-11-14T03:52:48;36.57;;;22.40;;
62332;SDS011;48624;49.812;8.562;2022-11-14T03:55:13;32.17;;;20.25;;
62332;SDS011;48624;49.812;8.562;2022-11-14T03:57:39;28.92;;;19.23;;
62332;SDS011;48624;49.812;8.562;2022-11-14T04:00:04;35.45;;;22.15;;
62332;SDS011;48624;49.812;8.562;2022-11-14T04:02:30;30.98;;;21.13;;
62332;SDS011;48624;49.812;8.562;2022-11-14T04:04:55;27.60;;;19.60;;
62332;SDS011;48624;49.812;8.562;2022-11-14T04:07:20;32.73;;;20.33;;
62332;SDS011;48624;49.812;8.562;2022-11-14T04:09:46;36.00;;;20.73;;
62332;SDS011;48624;49.812;8.562;2022-11-14T04:12:11;31.08;;;20.48;;
62332;SDS011;48624;49.812;8.562;2022-11-14T04:14:36;29.30;;;19.13;;
62332;SDS011;48624;49.812;8.562;2022-11-14T04:17:02;34.20;;;19.88;;
62332;SDS011;48624;49.812;8.562;2022-11-14T04:19:27;29.10;;;18.93;;
62332;SDS011;48624;49.812;8.562;2022-11-14T04:21:52;29.80;;;18.50;;
62332;SDS011;48624;49.812;8.562;2022-11-14T04:24:18;31.20;;;20.03;;
62332;SDS011;48624;49.812;8.562;2022-11-14T04:26:43;25.00;;;17.30;;
62332;SDS011;48624;49.812;8.562;2022-11-14T04:29:08;30.07;;;19.60;;
62332;SDS011;48624;49.812;8.562;2022-11-14T04:31:33;25.98;;;18.33;;
62332;SDS011;48624;49.812;8.562;2022-11-14T04:33:59;24.77;;;16.88;;
62332;SDS011;48624;49.812;8.562;2022-11-14T04:36:24;26.75;;;17.25;;
62332;SDS011;48624;49.812;8.562;2022-11-14T04:38:49;22.48;;;16.48;;
62332;SDS011;48624;49.812;8.562;2022-11-14T04:41:15;22.95;;;15.77;;
62332;SDS011;48624;49.812;8.562;2022-11-14T04:43:40;24.27;;;16.77;;
62332;SDS011;48624;49.812;8.562;2022-11-14T04:46:05;22.75;;;16.45;;
62332;SDS011;48624;49.812;8.562;2022-11-14T04:48:31;24.95;;;18.55;;
62332;SDS011;48624;49.812;8.562;2022-11-14T04:50:56;23.63;;;17.35;;
62332;SDS011;48624;49.812;8.562;2022-11-14T04:53:21;22.48;;;16.40;;
62332;SDS011;48624;49.812;8.562;2022-11-14T04:55:47;21.60;;;15.27;;
62332;SDS011;48624;49.812;8.562;2022-11-14T04:58:12;21.15;;;15.90;;
62332;SDS011;48624;49.812;8.562;2022-11-14T05:00:37;20.08;;;15.50;;
62332;SDS011;48624;49.812;8.562;2022-11-14T05:03:02;24.97;;;17.80;;
62332;SDS011;48624;49.812;8.562;2022-11-14T05:05:28;24.75;;;17.35;;
62332;SDS011;48624;49.812;8.562;2022-11-14T05:07:53;24.13;;;17.45;;
62332;SDS011;48624;49.812;8.562;2022-11-14T05:10:19;25.20;;;17.83;;
62332;SDS011;48624;49.812;8.562;2022-11-14T05:12:44;26.50;;;18.57;;
62332;SDS011;48624;49.812;8.562;2022-11-14T05:15:10;23.15;;;16.33;;
62332;SDS011;48624;49.812;8.562;2022-11-14T05:17:35;22.05;;;15.75;;
62332;SDS011;48624;49.812;8.562;2022-11-14T05:20:00;23.70;;;17.00;;
62332;SDS011;48624;49.812;8.562;2022-11-14T05:22:26;22.07;;;16.03;;
62332;SDS011;48624;49.812;8.562;2022-11-14T05:24:51;20.38;;;15.93;;
62332;SDS011;48624;49.812;8.562;2022-11-14T05:27:16;18.50;;;14.82;;
62332;SDS011;48624;49.812;8.562;2022-11-14T05:29:42;24.15;;;16.88;;
62332;SDS011;48624;49.812;8.562;2022-11-14T05:32:07;24.73;;;18.55;;
62332;SDS011;48624;49.812;8.562;2022-11-14T05:34:32;24.48;;;17.30;;
62332;SDS011;48624;49.812;8.562;2022-11-14T05:36:58;21.52;;;17.08;;
62332;SDS011;48624;49.812;8.562;2022-11-14T05:39:23;21.02;;;15.45;;
62332;SDS011;48624;49.812;8.562;2022-11-14T05:41:48;20.63;;;14.93;;
62332;SDS011;48624;49.812;8.562;2022-11-14T05:44:13;21.20;;;15.75;;
62332;SDS011;48624;49.812;8.562;2022-11-14T05:46:40;23.75;;;16.73;;
62332;SDS011;48624;49.812;8.562;2022-11-14T05:49:05;24.42;;;17.40;;
62332;SDS011;48624;49.812;8.562;2022-11-14T05:51:30;24.83;;;17.13;;
62332;SDS011;48624;49.812;8.562;2022-11-14T05:53:56;25.30;;;18.42;;
62332;SDS011;48624;49.812;8.562;2022-11-14T05:56:21;31.48;;;19.77;;
62332;SDS011;48624;49.812;8.562;2022-11-14T05:58:48;25.88;;;18.55;;
62332;SDS011;48624;49.812;8.562;2022-11-14T06:01:14;25.52;;;17.17;;
62332;SDS011;48624;49.812;8.562;2022-11-14T06:03:42;23.88;;;17.80;;
62332;SDS011;48624;49.812;8.562;2022-11-14T06:06:11;28.27;;;18.35;;
62332;SDS011;48624;49.812;8.562;2022-11-14T06:08:37;27.48;;;18.55;;
62332;SDS011;48624;49.812;8.562;2022-11-14T06:11:04;29.50;;;19.23;;
62332;SDS011;48624;49.812;8.562;2022-11-14T06:13:30;25.90;;;17.50;;
62332;SDS011;48624;49.812;8.562;2022-11-14T06:16:00;28.08;;;17.05;;
62332;SDS011;48624;49.812;8.562;2022-11-14T06:18:28;27.17;;;17.13;;
62332;SDS011;48624;49.812;8.562;2022-11-14T06:20:57;25.17;;;16.80;;
62332;SDS011;48624;49.812;8.562;2022-11-14T06:23:28;26.83;;;17.15;;
62332;SDS011;48624;49.812;8.562;2022-11-14T06:26:36;30.15;;;19.30;;
62332;SDS011;48624;49.812;8.562;2022-11-14T06:28:45;23.73;;;16.88;;
62332;SDS011;48624;49.812;8.562;2022-11-14T06:31:11;29.80;;;18.05;;
62332;SDS011;48624;49.812;8.562;2022-11-14T06:33:37;23.70;;;17.53;;
62332;SDS011;48624;49.812;8.562;2022-11-14T06:36:03;23.73;;;16.58;;
62332;SDS011;48624;49.812;8.562;2022-11-14T06:38:30;26.90;;;18.13;;
62332;SDS011;48624;49.812;8.562;2022-11-14T06:41:07;26.38;;;18.25;;
62332;SDS011;48624;49.812;8.562;2022-11-14T06:43:33;26.08;;;18.00;;
62332;SDS011;48624;49.812;8.562;2022-11-14T06:46:00;22.52;;;14.60;;
62332;SDS011;48624;49.812;8.562;2022-11-14T06:48:25;23.95;;;15.77;;
62332;SDS011;48624;49.812;8.562;2022-11-14T06:50:51;21.48;;;14.75;;
62332;SDS011;48624;49.812;8.562;2022-11-14T06:53:18;25.88;;;16.15;;
62332;SDS011;48624;49.812;8.562;2022-11-14T06:55:52;27.40;;;17.27;;
62332;SDS011;48624;49.812;8.562;2022-11-14T06:58:28;23.63;;;15.35;;
62332;SDS011;48624;49.812;8.562;2022-11-14T07:00:55;24.90;;;16.70;;
62332;SDS011;48624;49.812;8.562;2022-11-14T07:03:21;26.63;;;16.85;;
62332;SDS011;48624;49.812;8.562;2022-11-14T07:05:47;25.48;;;17.27;;
62332;SDS011;48624;49.812;8.562;2022-11-14T07:08:12;24.27;;;17.20;;
62332;SDS011;48624;49.812;8.562;2022-11-14T07:10:39;27.20;;;16.13;;
62332;SDS011;48624;49.812;8.562;2022-11-14T07:13:04;24.55;;;17.25;;
62332;SDS011;48624;49.812;8.562;2022-11-14T07:15:29;24.67;;;17.35;;
62332;SDS011;48624;49.812;8.562;2022-11-14T07:17:57;21.98;;;15.80;;
62332;SDS011;48624;49.812;8.562;2022-11-14T07:20:23;22.42;;;16.45;;
62332;SDS011;48624;49.812;8.562;2022-11-14T07:22:48;24.33;;;16.80;;
62332;SDS011;48624;49.812;8.562;2022-11-14T07:25:14;24.80;;;17.63;;
62332;SDS011;48624;49.812;8.562;2022-11-14T07:27:39;25.42;;;17.45;;
62332;SDS011;48624;49.812;8.562;2022-11-14T07:30:04;26.63;;;18.25;;
62332;SDS011;48624;49.812;8.562;2022-11-14T07:32:30;26.63;;;18.15;;
62332;SDS011;48624;49.812;8.562;2022-11-14T07:34:56;25.80;;;17.70;;
62332;SDS011;48624;49.812;8.562;2022-11-14T07:37:21;27.67;;;18.42;;
62332;SDS011;48624;49.812;8.562;2022-11-14T07:39:46;24.60;;;17.02;;
62332;SDS011;48624;49.812;8.562;2022-11-14T07:42:11;30.70;;;19.60;;
62332;SDS011;48624;49.812;8.562;2022-11-14T07:44:37;27.02;;;19.17;;
62332;SDS011;48624;49.812;8.562;2022-11-14T07:47:02;28.23;;;18.05;;
62332;SDS011;48624;49.812;8.562;2022-11-14T07:49:28;26.77;;;18.63;;
62332;SDS011;48624;49.812;8.562;2022-11-14T07:51:53;27.52;;;18.95;;
62332;SDS011;48624;49.812;8.562;2022-11-14T07:54:18;32.55;;;20.17;;
62332;SDS011;48624;49.812;8.562;2022-11-14T07:56:44;30.23;;;19.65;;
62332;SDS011;48624;49.812;8.562;2022-11-14T07:59:09;30.10;;;19.88;;
62332;SDS011;48624;49.812;8.562;2022-11-14T08:01:34;31.45;;;19.73;;
62332;SDS011;48624;49.812;8.562;2022-11-14T08:04:00;31.05;;;20.35;;
62332;SDS011;48624;49.812;8.562;2022-11-14T08:06:25;30.08;;;20.27;;
62332;SDS011;48624;49.812;8.562;2022-11-14T08:08:51;29.48;;;20.13;;
62332;SDS011;48624;49.812;8.562;2022-11-14T08:11:16;28.50;;;20.58;;
62332;SDS011;48624;49.812;8.562;2022-11-14T08:14:02;27.88;;;18.73;;
62332;SDS011;48624;49.812;8.562;2022-11-14T08:16:27;27.40;;;20.58;;
62332;SDS011;48624;49.812;8.562;2022-11-14T08:18:52;28.45;;;19.52;;
62332;SDS011;48624;49.812;8.562;2022-11-14T08:21:18;38.95;;;21.17;;
62332;SDS011;48624;49.812;8.562;2022-11-14T08:23:43;28.13;;;20.20;;
62332;SDS011;48624;49.812;8.562;2022-11-14T08:26:09;30.95;;;19.27;;
62332;SDS011;48624;49.812;8.562;2022-11-14T08:28:34;27.30;;;18.05;;
62332;SDS011;48624;49.812;8.562;2022-11-14T08:31:00;27.25;;;18.00;;
62332;SDS011;48624;49.812;8.562;2022-11-14T08:33:26;78.57;;;55.42;;
62332;SDS011;48624;49.812;8.562;2022-11-14T08:35:51;51.58;;;37.70;;
62332;SDS011;48624;49.812;8.562;2022-11-14T08:38:17;37.85;;;25.13;;
62332;SDS011;48624;49.812;8.562;2022-11-14T08:40:42;27.92;;;19.55;;
62332;SDS011;48624;49.812;8.562;2022-11-14T08:43:07;34.72;;;21.88;;
62332;SDS011;48624;49.812;8.562;2022-11-14T08:45:35;30.17;;;20.20;;
62332;SDS011;48624;49.812;8.562;2022-11-14T08:48:00;32.05;;;19.80;;
62332;SDS011;48624;49.812;8.562;2022-11-14T08:50:25;27.95;;;18.08;;
62332;SDS011;48624;49.812;8.562;2022-11-14T08:52:51;29.67;;;19.30;;
62332;SDS011;48624;49.812;8.562;2022-11-14T08:55:16;29.02;;;18.10;;
62332;SDS011;48624;49.812;8.562;2022-11-14T08:57:43;26.80;;;18.23;;
62332;SDS011;48624;49.812;8.562;2022-11-14T09:00:08;28.27;;;18.30;;
62332;SDS011;48624;49.812;8.562;2022-11-14T09:02:34;25.35;;;18.25;;
62332;SDS011;48624;49.812;8.562;2022-11-14T09:04:59;22.58;;;16.92;;
62332;SDS011;48624;49.812;8.562;2022-11-14T09:07:25;22.17;;;17.40;;
62332;SDS011;48624;49.812;8.562;2022-11-14T09:09:50;22.67;;;16.67;;
62332;SDS011;48624;49.812;8.562;2022-11-14T09:12:16;21.60;;;15.35;;
62332;SDS011;48624;49.812;8.562;2022-11-14T09:14:42;24.52;;;17.70;;
62332;SDS011;48624;49.812;8.562;2022-11-14T09:17:07;26.52;;;17.42;;
62332;SDS011;48624;49.812;8.562;2022-11-14T09:19:32;22.98;;;16.08;;
62332;SDS011;48624;49.812;8.562;2022-11-14T09:21:58;26.13;;;17.60;;
62332;SDS011;48624;49.812;8.562;2022-11-14T09:24:23;24.58;;;17.80;;
62332;SDS011;48624;49.812;8.562;2022-11-14T09:26:49;24.45;;;17.05;;
62332;SDS011;48624;49.812;8.562;2022-11-14T09:29:15;24.42;;;17.35;;
62332;SDS011;48624;49.812;8.562;2022-11-14T09:31:43;28.02;;;16.42;;
62332;SDS011;48624;49.812;8.562;2022-11-14T09:34:08;22.95;;;16.70;;
62332;SDS011;48624;49.812;8.562;2022-11-14T09:36:33;24.42;;;16.42;;
62332;SDS011;48624;49.812;8.562;2022-11-14T09:38:59;24.50;;;17.05;;
62332;SDS011;48624;49.812;8.562;2022-11-14T09:41:25;25.65;;;17.73;;
62332;SDS011;48624;49.812;8.562;2022-11-14T09:44:12;26.00;;;18.13;;
62332;SDS011;48624;49.812;8.562;2022-11-14T09:47:07;27.23;;;18.15;;
62332;SDS011;48624;49.812;8.562;2022-11-14T09:49:37;23.55;;;17.05;;
62332;SDS011;48624;49.812;8.562;2022-11-14T09:52:27;25.90;;;18.65;;
62332;SDS011;48624;49.812;8.562;2022-11-14T09:55:12;26.88;;;18.63;;
62332;SDS011;48624;49.812;8.562;2022-11-14T09:57:42;27.55;;;18.33;;
62332;SDS011;48624;49.812;8.562;2022-11-14T10:00:53;26.25;;;18.90;;
62332;SDS011;48624;49.812;8.562;2022-11-14T10:03:13;25.17;;;18.00;;
62332;SDS011;48624;49.812;8.562;2022-11-14T10:06:00;22.17;;;16.48;;
62332;SDS011;48624;49.812;8.562;2022-11-14T10:08:36;25.92;;;16.65;;
62332;SDS011;48624;49.812;8.562;2022-11-14T10:11:28;24.13;;;16.77;;
62332;SDS011;48624;49.812;8.562;2022-11-14T10:27:27;23.33;;;16.25;;
62332;SDS011;48624;49.812;8.562;2022-11-14T10:32:36;25.33;;;17.73;;
62332;SDS011;48624;49.812;8.562;2022-11-14T10:40:28;21.52;;;16.55;;
62332;SDS011;48624;49.812;8.562;2022-11-14T10:46:12;24.58;;;16.55;;
62332;SDS011;48624;49.812;8.562;2022-11-14T10:48:40;20.55;;;16.20;;
62332;SDS011;48624;49.812;8.562;2022-11-14T10:51:17;24.48;;;17.33;;
62332;SDS011;48624;49.812;8.562;2022-11-14T10:54:04;21.95;;;15.80;;
62332;SDS011;48624;49.812;8.562;2022-11-14T10:59:12;25.08;;;16.88;;
62332;SDS011;48624;49.812;8.562;2022-11-14T11:01:38;22.58;;;16.15;;
62332;SDS011;48624;49.812;8.562;2022-11-14T11:04:19;27.80;;;17.50;;
62332;SDS011;48624;49.812;8.562;2022-11-14T11:06:49;28.67;;;17.83;;
62332;SDS011;48624;49.812;8.562;2022-11-14T11:12:02;25.65;;;16.25;;
62332;SDS011;48624;49.812;8.562;2022-11-14T11:14:29;23.73;;;14.48;;
62332;SDS011;48624;49.812;8.562;2022-11-14T11:17:13;25.00;;;14.43;;
62332;SDS011;48624;49.812;8.562;2022-11-14T11:19:40;17.58;;;13.70;;
62332;SDS011;48624;49.812;8.562;2022-11-14T11:25:23;19.42;;;13.50;;
62332;SDS011;48624;49.812;8.562;2022-11-14T11:28:03;19.88;;;14.38;;
62332;SDS011;48624;49.812;8.562;2022-11-14T11:30:30;17.13;;;12.98;;
62332;SDS011;48624;49.812;8.562;2022-11-14T11:33:01;16.17;;;12.50;;
62332;SDS011;48624;49.812;8.562;2022-11-14T11:35:39;19.00;;;13.55;;
62332;SDS011;48624;49.812;8.562;2022-11-14T11:38:06;17.83;;;12.88;;
62332;SDS011;48624;49.812;8.562;2022-11-14T11:40:36;16.52;;;13.23;;
62332;SDS011;48624;49.812;8.562;2022-11-14T11:43:05;18.13;;;13.50;;
62332;SDS011;48624;49.812;8.562;2022-11-14T11:45:42;14.60;;;11.85;;
62332;SDS011;48624;49.812;8.562;2022-11-14T11:48:18;16.80;;;11.98;;
62332;SDS011;48624;49.812;8.562;2022-11-14T11:50:46;17.33;;;14.70;;
62332;SDS011;48624;49.812;8.562;2022-11-14T11:53:27;12.77;;;10.40;;
62332;SDS011;48624;49.812;8.562;2022-11-14T11:55:59;14.18;;;10.00;;
62332;SDS011;48624;49.812;8.562;2022-11-14T11:58:30;14.43;;;11.52;;
62332;SDS011;48624;49.812;8.562;2022-11-14T12:01:02;13.00;;;9.18;;
62332;SDS011;48624;49.812;8.562;2022-11-14T12:03:27;13.65;;;11.15;;
62332;SDS011;48624;49.812;8.562;2022-11-14T12:11:25;11.52;;;9.00;;
62332;SDS011;48624;49.812;8.562;2022-11-14T12:19:34;9.23;;;7.93;;
62332;SDS011;48624;49.812;8.562;2022-11-14T12:25:24;10.88;;;7.82;;
62332;SDS011;48624;49.812;8.562;2022-11-14T12:30:56;12.20;;;7.70;;
62332;SDS011;48624;49.812;8.562;2022-11-14T12:33:29;9.10;;;7.05;;
62332;SDS011;48624;49.812;8.562;2022-11-14T12:36:10;9.82;;;7.07;;
62332;SDS011;48624;49.812;8.562;2022-11-14T12:38:44;9.93;;;7.32;;
62332;SDS011;48624;49.812;8.562;2022-11-14T12:41:13;8.35;;;7.13;;
62332;SDS011;48624;49.812;8.562;2022-11-14T12:43:50;9.27;;;6.82;;
62332;SDS011;48624;49.812;8.562;2022-11-14T12:46:15;7.57;;;6.65;;
62332;SDS011;48624;49.812;8.562;2022-11-14T12:48:41;12.20;;;9.82;;
62332;SDS011;48624;49.812;8.562;2022-11-14T12:53:48;11.73;;;10.02;;
62332;SDS011;48624;49.812;8.562;2022-11-14T12:56:59;15.48;;;10.85;;
62332;SDS011;48624;49.812;8.562;2022-11-14T13:10:27;17.73;;;10.13;;
62332;SDS011;48624;49.812;8.562;2022-11-14T13:13:07;14.77;;;9.07;;
62332;SDS011;48624;49.812;8.562;2022-11-14T13:15:53;14.32;;;10.63;;
62332;SDS011;48624;49.812;8.562;2022-11-14T13:19:21;14.93;;;10.73;;
62332;SDS011;48624;49.812;8.562;2022-11-14T13:22:32;14.60;;;10.02;;
62332;SDS011;48624;49.812;8.562;2022-11-14T13:27:26;14.38;;;9.70;;
62332;SDS011;48624;49.812;8.562;2022-11-14T13:29:56;11.90;;;9.20;;
62332;SDS011;48624;49.812;8.562;2022-11-14T13:35:12;14.73;;;9.50;;
62332;SDS011;48624;49.812;8.562;2022-11-14T13:43:16;12.30;;;9.90;;
62332;SDS011;48624;49.812;8.562;2022-11-14T13:51:31;19.73;;;14.32;;
62332;SDS011;48624;49.812;8.562;2022-11-14T13:53:57;16.40;;;10.15;;
62332;SDS011;48624;49.812;8.562;2022-11-14T13:56:24;14.85;;;9.65;;
62332;SDS011;48624;49.812;8.562;2022-11-14T13:59:25;13.05;;;9.70;;
62332;SDS011;48624;49.812;8.562;2022-11-14T14:05:18;10.70;;;7.93;;
62332;SDS011;48624;49.812;8.562;2022-11-14T14:13:30;6.65;;;5.38;;
62332;SDS011;48624;49.812;8.562;2022-11-14T14:16:12;12.15;;;7.95;;
62332;SDS011;48624;49.812;8.562;2022-11-14T14:18:55;13.45;;;8.88;;
62332;SDS011;48624;49.812;8.562;2022-11-14T14:21:32;10.88;;;6.47;;
62332;SDS011;48624;49.812;8.562;2022-11-14T14:24:27;17.92;;;10.85;;
62332;SDS011;48624;49.812;8.562;2022-11-14T14:32:36;12.80;;;5.57;;
62332;SDS011;48624;49.812;8.562;2022-11-14T14:35:21;9.50;;;7.20;;
62332;SDS011;48624;49.812;8.562;2022-11-14T14:37:49;10.57;;;8.48;;
62332;SDS011;48624;49.812;8.562;2022-11-14T14:40:26;12.98;;;9.13;;
62332;SDS011;48624;49.812;8.562;2022-11-14T14:43:04;13.60;;;10.70;;
62332;SDS011;48624;49.812;8.562;2022-11-14T14:45:31;19.98;;;12.93;;
62332;SDS011;48624;49.812;8.562;2022-11-14T14:48:12;17.08;;;10.90;;
62332;SDS011;48624;49.812;8.562;2022-11-14T14:50:39;55.63;;;34.78;;
62332;SDS011;48624;49.812;8.562;2022-11-14T14:53:06;31.65;;;21.02;;
62332;SDS011;48624;49.812;8.562;2022-11-14T14:55:49;52.72;;;43.05;;
62332;SDS011;48624;49.812;8.562;2022-11-14T15:03:49;19.60;;;13.23;;
62332;SDS011;48624;49.812;8.562;2022-11-14T15:06:21;16.83;;;12.52;;
62332;SDS011;48624;49.812;8.562;2022-11-14T15:08:54;15.95;;;11.57;;
62332;SDS011;48624;49.812;8.562;2022-11-14T15:11:41;20.13;;;13.00;;
62332;SDS011;48624;49.812;8.562;2022-11-14T15:14:11;37.65;;;19.30;;
62332;SDS011;48624;49.812;8.562;2022-11-14T15:16:39;20.00;;;12.10;;
62332;SDS011;48624;49.812;8.562;2022-11-14T15:19:05;37.17;;;20.67;;
62332;SDS011;48624;49.812;8.562;2022-11-14T15:21:34;32.38;;;17.02;;
62332;SDS011;48624;49.812;8.562;2022-11-14T15:24:00;27.63;;;18.05;;
62332;SDS011;48624;49.812;8.562;2022-11-14T15:26:44;23.33;;;14.25;;
62332;SDS011;48624;49.812;8.562;2022-11-14T15:29:24;28.13;;;17.13;;
62332;SDS011;48624;49.812;8.562;2022-11-14T15:31:51;21.50;;;13.48;;
62332;SDS011;48624;49.812;8.562;2022-11-14T15:34:27;27.42;;;16.77;;
62332;SDS011;48624;49.812;8.562;2022-11-14T15:39:32;22.73;;;15.55;;
62332;SDS011;48624;49.812;8.562;2022-11-14T15:44:48;16.77;;;12.95;;
62332;SDS011;48624;49.812;8.562;2022-11-14T15:47:22;17.33;;;11.18;;
62332;SDS011;48624;49.812;8.562;2022-11-14T15:52:29;15.32;;;10.65;;
62332;SDS011;48624;49.812;8.562;2022-11-14T15:55:21;16.98;;;9.75;;
62332;SDS011;48624;49.812;8.562;2022-11-14T15:57:48;12.63;;;9.70;;
62332;SDS011;48624;49.812;8.562;2022-11-14T16:00:14;12.40;;;9.38;;
62332;SDS011;48624;49.812;8.562;2022-11-14T16:02:49;14.40;;;9.15;;
62332;SDS011;48624;49.812;8.562;2022-11-14T16:05:16;12.00;;;8.43;;
62332;SDS011;48624;49.812;8.562;2022-11-14T16:07:45;12.48;;;8.38;;
62332;SDS011;48624;49.812;8.562;2022-11-14T16:10:15;9.57;;;7.25;;
62332;SDS011;48624;49.812;8.562;2022-11-14T16:12:47;10.77;;;7.25;;
62332;SDS011;48624;49.812;8.562;2022-11-14T16:15:13;11.20;;;8.43;;
62332;SDS011;48624;49.812;8.562;2022-11-14T16:17:41;11.35;;;8.48;;
62332;SDS011;48624;49.812;8.562;2022-11-14T16:20:14;14.27;;;7.90;;
62332;SDS011;48624;49.812;8.562;2022-11-14T16:22:44;14.75;;;8.77;;
62332;SDS011;48624;49.812;8.562;2022-11-14T16:25:44;13.77;;;8.88;;
62332;SDS011;48624;49.812;8.562;2022-11-14T16:28:02;9.23;;;7.40;;